sensor_id;sensor_type;location;lat;lon;timestamp;temperature;humidity
61351;DHT22;47119;49.130;9.218;2023-07-20T00:00:13;21.92;56.83
61351;DHT22;47119;49.130;9.218;2023-07-20T00:02:41;21.92;57.17
61351;DHT22;47119;49.130;9.218;2023-07-20T00:05:08;21.92;57.53
61351;DHT22;47119;49.130;9.218;2023-07-20T00:07:37;21.90;56.82
61351;DHT22;47119;49.130;9.218;2023-07-20T00:10:06;21.86;57.30
61351;DHT22;47119;49.130;9.218;2023-07-20T00:12:34;21.89;56.59
61351;DHT22;47119;49.130;9.218;2023-07-20T00:15:01;21.87;55.94
61351;DHT22;47119;49.130;9.218;2023-07-20T00:17:29;21.80;55.33
61351;DHT22;47119;49.130;9.218;2023-07-20T00:19:56;21.72;55.46
61351;DHT22;47119;49.130;9.218;2023-07-20T00:22:24;21.73;55.67
61351;DHT22;47119;49.130;9.218;2023-07-20T00:24:51;21.73;55.72
61351;DHT22;47119;49.130;9.218;2023-07-20T00:27:25;21.80;55.95
61351;DHT22;47119;49.130;9.218;2023-07-20T00:29:52;21.77;56.09
61351;DHT22;47119;49.130;9.218;2023-07-20T00:32:21;21.82;56.20
61351;DHT22;47119;49.130;9.218;2023-07-20T00:34:50;21.83;56.53
61351;DHT22;47119;49.130;9.218;2023-07-20T00:37:17;21.80;57.41
61351;DHT22;47119;49.130;9.218;2023-07-20T00:39:46;21.80;57.73
61351;DHT22;47119;49.130;9.218;2023-07-20T00:42:15;21.83;56.82
61351;DHT22;47119;49.130;9.218;2023-07-20T00:44:42;21.80;56.25
61351;DHT22;47119;49.130;9.218;2023-07-20T00:47:09;21.83;56.79
61351;DHT22;47119;49.130;9.218;2023-07-20T00:49:39;21.73;55.86
61351;DHT22;47119;49.130;9.218;2023-07-20T00:52:10;21.82;56.38
61351;DHT22;47119;49.130;9.218;2023-07-20T00:54:42;21.77;56.86
61351;DHT22;47119;49.130;9.218;2023-07-20T00:57:12;21.77;56.49
61351;DHT22;47119;49.130;9.218;2023-07-20T00:59:43;21.72;56.62
61351;DHT22;47119;49.130;9.218;2023-07-20T01:02:10;21.74;56.38
61351;DHT22;47119;49.130;9.218;2023-07-20T01:04:37;21.67;55.79
61351;DHT22;47119;49.130;9.218;2023-07-20T01:07:23;21.69;56.51
61351;DHT22;47119;49.130;9.218;2023-07-20T01:10:01;21.72;56.87
61351;DHT22;47119;49.130;9.218;2023-07-20T01:12:38;21.73;56.83
61351;DHT22;47119;49.130;9.218;2023-07-20T01:15:08;21.73;56.37
61351;DHT22;47119;49.130;9.218;2023-07-20T01:17:35;21.76;56.48
61351;DHT22;47119;49.130;9.218;2023-07-20T01:20:06;21.65;56.23
61351;DHT22;47119;49.130;9.218;2023-07-20T01:23:04;21.67;56.19
61351;DHT22;47119;49.130;9.218;2023-07-20T01:26:26;21.60;56.08
61351;DHT22;47119;49.130;9.218;2023-07-20T01:29:13;21.65;56.64
61351;DHT22;47119;49.130;9.218;2023-07-20T01:32:04;21.60;56.53
61351;DHT22;47119;49.130;9.218;2023-07-20T01:34:35;21.57;56.65
61351;DHT22;47119;49.130;9.218;2023-07-20T01:37:06;21.52;56.16
61351;DHT22;47119;49.130;9.218;2023-07-20T01:39:36;21.56;56.41
61351;DHT22;47119;49.130;9.218;2023-07-20T01:42:07;21.65;56.67
61351;DHT22;47119;49.130;9.218;2023-07-20T01:44:34;21.66;56.61
61351;DHT22;47119;49.130;9.218;2023-07-20T01:47:07;21.65;56.54
61351;DHT22;47119;49.130;9.218;2023-07-20T01:49:34;21.65;56.04
61351;DHT22;47119;49.130;9.218;2023-07-20T01:52:01;21.69;57.01
61351;DHT22;47119;49.130;9.218;2023-07-20T01:54:32;21.63;56.34
61351;DHT22;47119;49.130;9.218;2023-07-20T01:57:01;21.57;56.65
61351;DHT22;47119;49.130;9.218;2023-07-20T01:59:32;21.52;56.11
61351;DHT22;47119;49.130;9.218;2023-07-20T02:02:02;21.55;56.85
61351;DHT22;47119;49.130;9.218;2023-07-20T02:04:30;21.53;56.29
61351;DHT22;47119;49.130;9.218;2023-07-20T02:06:57;21.53;56.29
61351;DHT22;47119;49.130;9.218;2023-07-20T02:09:27;21.49;56.45
61351;DHT22;47119;49.130;9.218;2023-07-20T02:11:54;21.49;56.92
61351;DHT22;47119;49.130;9.218;2023-07-20T02:14:23;21.42;56.41
61351;DHT22;47119;49.130;9.218;2023-07-20T02:16:52;21.45;57.11
61351;DHT22;47119;49.130;9.218;2023-07-20T02:19:26;21.42;56.87
61351;DHT22;47119;49.130;9.218;2023-07-20T02:21:54;21.46;56.74
61351;DHT22;47119;49.130;9.218;2023-07-20T02:24:21;21.45;57.21
61351;DHT22;47119;49.130;9.218;2023-07-20T02:26:48;21.55;57.02
61351;DHT22;47119;49.130;9.218;2023-07-20T02:29:17;21.46;56.64
61351;DHT22;47119;49.130;9.218;2023-07-20T02:31:44;21.32;56.81
61351;DHT22;47119;49.130;9.218;2023-07-20T02:34:15;21.35;57.55
61351;DHT22;47119;49.130;9.218;2023-07-20T02:36:45;21.31;57.13
61351;DHT22;47119;49.130;9.218;2023-07-20T02:39:13;21.26;56.99
61351;DHT22;47119;49.130;9.218;2023-07-20T02:41:40;21.16;57.17
61351;DHT22;47119;49.130;9.218;2023-07-20T02:44:10;21.18;57.23
61351;DHT22;47119;49.130;9.218;2023-07-20T02:46:39;21.16;57.61
61351;DHT22;47119;49.130;9.218;2023-07-20T02:49:07;21.08;57.51
61351;DHT22;47119;49.130;9.218;2023-07-20T02:51:34;21.14;57.46
61351;DHT22;47119;49.130;9.218;2023-07-20T02:54:01;21.05;57.91
61351;DHT22;47119;49.130;9.218;2023-07-20T02:56:30;20.99;57.76
61351;DHT22;47119;49.130;9.218;2023-07-20T02:58:57;20.97;58.03
61351;DHT22;47119;49.130;9.218;2023-07-20T03:01:24;21.04;58.11
61351;DHT22;47119;49.130;9.218;2023-07-20T03:03:54;20.95;57.99
61351;DHT22;47119;49.130;9.218;2023-07-20T03:06:21;20.88;58.09
61351;DHT22;47119;49.130;9.218;2023-07-20T03:08:48;20.85;58.12
61351;DHT22;47119;49.130;9.218;2023-07-20T03:11:18;20.91;57.89
61351;DHT22;47119;49.130;9.218;2023-07-20T03:13:47;20.84;58.21
61351;DHT22;47119;49.130;9.218;2023-07-20T03:16:17;20.85;58.41
61351;DHT22;47119;49.130;9.218;2023-07-20T03:18:46;20.80;58.42
61351;DHT22;47119;49.130;9.218;2023-07-20T03:21:13;20.84;58.27
61351;DHT22;47119;49.130;9.218;2023-07-20T03:23:42;20.80;58.38
61351;DHT22;47119;49.130;9.218;2023-07-20T03:26:10;20.83;58.60
61351;DHT22;47119;49.130;9.218;2023-07-20T03:28:40;20.74;58.35
61351;DHT22;47119;49.130;9.218;2023-07-20T03:31:10;20.78;58.16
61351;DHT22;47119;49.130;9.218;2023-07-20T03:33:43;20.78;58.52
61351;DHT22;47119;49.130;9.218;2023-07-20T03:36:10;20.73;58.36
61351;DHT22;47119;49.130;9.218;2023-07-20T03:38:37;20.77;58.41
61351;DHT22;47119;49.130;9.218;2023-07-20T03:41:06;20.73;58.36
61351;DHT22;47119;49.130;9.218;2023-07-20T03:43:34;20.75;58.68
61351;DHT22;47119;49.130;9.218;2023-07-20T03:46:06;20.75;58.66
61351;DHT22;47119;49.130;9.218;2023-07-20T03:48:34;20.74;58.59
61351;DHT22;47119;49.130;9.218;2023-07-20T03:51:01;20.70;58.54
61351;DHT22;47119;49.130;9.218;2023-07-20T03:53:33;20.63;58.85
61351;DHT22;47119;49.130;9.218;2023-07-20T03:56:00;20.64;58.64
61351;DHT22;47119;49.130;9.218;2023-07-20T03:58:27;20.66;58.70
61351;DHT22;47119;49.130;9.218;2023-07-20T04:00:57;20.71;58.62
61351;DHT22;47119;49.130;9.218;2023-07-20T04:03:29;20.66;58.65
61351;DHT22;47119;49.130;9.218;2023-07-20T04:05:58;20.71;58.53
61351;DHT22;47119;49.130;9.218;2023-07-20T04:08:25;20.60;58.74
61351;DHT22;47119;49.130;9.218;2023-07-20T04:10:52;20.61;58.73
61351;DHT22;47119;49.130;9.218;2023-07-20T04:13:19;20.61;58.72
61351;DHT22;47119;49.130;9.218;2023-07-20T04:15:48;20.63;58.47
61351;DHT22;47119;49.130;9.218;2023-07-20T04:18:15;20.73;58.81
61351;DHT22;47119;49.130;9.218;2023-07-20T04:20:42;20.67;58.69
61351;DHT22;47119;49.130;9.218;2023-07-20T04:23:11;20.63;58.69
61351;DHT22;47119;49.130;9.218;2023-07-20T04:25:39;20.70;58.76
61351;DHT22;47119;49.130;9.218;2023-07-20T04:28:08;20.71;58.68
61351;DHT22;47119;49.130;9.218;2023-07-20T04:30:37;20.78;58.96
61351;DHT22;47119;49.130;9.218;2023-07-20T04:33:08;20.68;58.81
61351;DHT22;47119;49.130;9.218;2023-07-20T04:35:55;20.75;59.15
61351;DHT22;47119;49.130;9.218;2023-07-20T04:38:41;20.78;58.72
61351;DHT22;47119;49.130;9.218;2023-07-20T04:41:18;20.81;58.63
61351;DHT22;47119;49.130;9.218;2023-07-20T04:43:48;20.88;58.94
61351;DHT22;47119;49.130;9.218;2023-07-20T04:46:20;20.81;58.24
61351;DHT22;47119;49.130;9.218;2023-07-20T04:48:49;20.73;59.07
61351;DHT22;47119;49.130;9.218;2023-07-20T04:51:16;20.80;58.95
61351;DHT22;47119;49.130;9.218;2023-07-20T04:53:48;20.77;58.72
61351;DHT22;47119;49.130;9.218;2023-07-20T04:56:15;20.78;58.76
61351;DHT22;47119;49.130;9.218;2023-07-20T04:58:42;20.78;58.68
61351;DHT22;47119;49.130;9.218;2023-07-20T05:01:09;20.95;58.92
61351;DHT22;47119;49.130;9.218;2023-07-20T05:03:39;20.87;58.65
61351;DHT22;47119;49.130;9.218;2023-07-20T05:06:08;20.81;58.83
61351;DHT22;47119;49.130;9.218;2023-07-20T05:08:35;20.91;58.92
61351;DHT22;47119;49.130;9.218;2023-07-20T05:11:03;20.81;58.71
61351;DHT22;47119;49.130;9.218;2023-07-20T05:13:30;20.83;58.77
61351;DHT22;47119;49.130;9.218;2023-07-20T05:15:58;20.84;58.82
61351;DHT22;47119;49.130;9.218;2023-07-20T05:18:25;20.95;58.55
61351;DHT22;47119;49.130;9.218;2023-07-20T05:20:52;20.91;58.85
61351;DHT22;47119;49.130;9.218;2023-07-20T05:23:22;20.88;59.02
61351;DHT22;47119;49.130;9.218;2023-07-20T05:25:54;20.94;58.93
61351;DHT22;47119;49.130;9.218;2023-07-20T05:28:26;20.95;58.94
61351;DHT22;47119;49.130;9.218;2023-07-20T05:30:53;20.97;59.04
61351;DHT22;47119;49.130;9.218;2023-07-20T05:33:21;20.99;58.68
61351;DHT22;47119;49.130;9.218;2023-07-20T05:35:48;21.01;58.77
61351;DHT22;47119;49.130;9.218;2023-07-20T05:38:15;20.98;58.95
61351;DHT22;47119;49.130;9.218;2023-07-20T05:40:43;21.02;59.17
61351;DHT22;47119;49.130;9.218;2023-07-20T05:43:11;21.01;59.05
61351;DHT22;47119;49.130;9.218;2023-07-20T05:45:41;21.04;59.03
61351;DHT22;47119;49.130;9.218;2023-07-20T05:48:10;21.09;59.02
61351;DHT22;47119;49.130;9.218;2023-07-20T05:50:43;21.21;59.07
61351;DHT22;47119;49.130;9.218;2023-07-20T05:53:10;21.21;59.20
61351;DHT22;47119;49.130;9.218;2023-07-20T05:55:37;21.09;59.01
61351;DHT22;47119;49.130;9.218;2023-07-20T05:58:07;21.09;59.33
61351;DHT22;47119;49.130;9.218;2023-07-20T06:00:36;21.09;59.34
61351;DHT22;47119;49.130;9.218;2023-07-20T06:03:05;21.25;59.62
61351;DHT22;47119;49.130;9.218;2023-07-20T06:05:31;21.25;59.06
61351;DHT22;47119;49.130;9.218;2023-07-20T06:08:01;21.31;59.40
61351;DHT22;47119;49.130;9.218;2023-07-20T06:10:30;21.32;59.23
61351;DHT22;47119;49.130;9.218;2023-07-20T06:12:57;21.28;59.42
61351;DHT22;47119;49.130;9.218;2023-07-20T06:15:28;21.22;59.19
61351;DHT22;47119;49.130;9.218;2023-07-20T06:18:00;21.16;59.33
61351;DHT22;47119;49.130;9.218;2023-07-20T06:20:31;21.16;59.42
61351;DHT22;47119;49.130;9.218;2023-07-20T06:23:00;21.28;59.44
61351;DHT22;47119;49.130;9.218;2023-07-20T09:52:02;21.80;53.77
61351;DHT22;47119;49.130;9.218;2023-07-20T10:12:55;21.84;53.31
61351;DHT22;47119;49.130;9.218;2023-07-20T10:15:40;21.80;53.94
61351;DHT22;47119;49.130;9.218;2023-07-20T10:21:45;21.86;53.63
61351;DHT22;47119;49.130;9.218;2023-07-20T10:24:28;21.86;53.23
61351;DHT22;47119;49.130;9.218;2023-07-20T10:27:01;21.87;53.47
61351;DHT22;47119;49.130;9.218;2023-07-20T10:29:44;21.87;53.72
61351;DHT22;47119;49.130;9.218;2023-07-20T10:32:43;21.80;53.00
61351;DHT22;47119;49.130;9.218;2023-07-20T10:39:36;21.86;51.60
61351;DHT22;47119;49.130;9.218;2023-07-20T10:42:07;21.84;51.76
61351;DHT22;47119;49.130;9.218;2023-07-20T10:49:01;21.84;51.72
61351;DHT22;47119;49.130;9.218;2023-07-20T12:24:17;21.83;55.07
61351;DHT22;47119;49.130;9.218;2023-07-20T12:26:44;21.92;51.77
61351;DHT22;47119;49.130;9.218;2023-07-20T12:29:11;21.98;49.85
61351;DHT22;47119;49.130;9.218;2023-07-20T12:31:43;21.92;51.18
61351;DHT22;47119;49.130;9.218;2023-07-20T12:34:11;21.94;51.45
61351;DHT22;47119;49.130;9.218;2023-07-20T12:36:43;21.90;54.07
61351;DHT22;47119;49.130;9.218;2023-07-20T12:39:09;21.82;56.73
61351;DHT22;47119;49.130;9.218;2023-07-20T12:41:38;21.90;53.06
61351;DHT22;47119;49.130;9.218;2023-07-20T12:44:05;21.93;51.87
61351;DHT22;47119;49.130;9.218;2023-07-20T12:46:34;21.90;51.98
61351;DHT22;47119;49.130;9.218;2023-07-20T12:49:04;22.05;49.18
61351;DHT22;47119;49.130;9.218;2023-07-20T12:51:36;22.11;49.52
61351;DHT22;47119;49.130;9.218;2023-07-20T12:54:03;22.05;49.49
61351;DHT22;47119;49.130;9.218;2023-07-20T12:56:35;22.01;51.04
61351;DHT22;47119;49.130;9.218;2023-07-20T12:59:05;22.07;49.44
61351;DHT22;47119;49.130;9.218;2023-07-20T13:01:32;22.05;50.83
61351;DHT22;47119;49.130;9.218;2023-07-20T13:03:59;22.03;52.19
61351;DHT22;47119;49.130;9.218;2023-07-20T13:06:26;22.11;50.02
61351;DHT22;47119;49.130;9.218;2023-07-20T13:08:58;22.10;50.61
61351;DHT22;47119;49.130;9.218;2023-07-20T13:11:27;22.01;52.07
61351;DHT22;47119;49.130;9.218;2023-07-20T13:13:54;22.00;53.69
61351;DHT22;47119;49.130;9.218;2023-07-20T13:16:22;22.03;51.68
61351;DHT22;47119;49.130;9.218;2023-07-20T13:18:49;22.11;50.80
61351;DHT22;47119;49.130;9.218;2023-07-20T13:21:16;22.15;49.59
61351;DHT22;47119;49.130;9.218;2023-07-20T13:23:45;22.07;52.99
61351;DHT22;47119;49.130;9.218;2023-07-20T13:26:15;22.11;48.70
61351;DHT22;47119;49.130;9.218;2023-07-20T13:28:42;22.08;50.93
61351;DHT22;47119;49.130;9.218;2023-07-20T13:31:11;22.11;49.95
61351;DHT22;47119;49.130;9.218;2023-07-20T13:33:39;22.11;50.03
61351;DHT22;47119;49.130;9.218;2023-07-20T13:36:08;22.10;50.07
61351;DHT22;47119;49.130;9.218;2023-07-20T13:38:35;22.05;50.43
61351;DHT22;47119;49.130;9.218;2023-07-20T13:41:02;22.05;50.16
61351;DHT22;47119;49.130;9.218;2023-07-20T13:43:29;22.17;49.74
61351;DHT22;47119;49.130;9.218;2023-07-20T13:45:56;22.15;50.39
61351;DHT22;47119;49.130;9.218;2023-07-20T13:48:25;22.17;49.42
61351;DHT22;47119;49.130;9.218;2023-07-20T13:50:53;22.17;49.34
61351;DHT22;47119;49.130;9.218;2023-07-20T13:53:22;22.10;51.71
61351;DHT22;47119;49.130;9.218;2023-07-20T13:55:50;22.04;50.33
61351;DHT22;47119;49.130;9.218;2023-07-20T13:58:18;22.13;50.32
61351;DHT22;47119;49.130;9.218;2023-07-20T14:00:47;22.07;51.95
61351;DHT22;47119;49.130;9.218;2023-07-20T14:03:14;22.08;48.95
61351;DHT22;47119;49.130;9.218;2023-07-20T14:05:44;22.20;50.54
61351;DHT22;47119;49.130;9.218;2023-07-20T14:08:13;22.21;49.17
61351;DHT22;47119;49.130;9.218;2023-07-20T14:10:42;22.15;49.89
61351;DHT22;47119;49.130;9.218;2023-07-20T14:13:11;22.14;49.10
61351;DHT22;47119;49.130;9.218;2023-07-20T14:15:38;22.14;49.97
61351;DHT22;47119;49.130;9.218;2023-07-20T14:18:11;22.11;50.35
61351;DHT22;47119;49.130;9.218;2023-07-20T14:20:38;22.17;49.82
61351;DHT22;47119;49.130;9.218;2023-07-20T14:23:10;22.20;48.51
61351;DHT22;47119;49.130;9.218;2023-07-20T14:25:38;22.21;49.00
61351;DHT22;47119;49.130;9.218;2023-07-20T14:28:08;22.17;48.06
61351;DHT22;47119;49.130;9.218;2023-07-20T14:30:37;22.20;49.31
61351;DHT22;47119;49.130;9.218;2023-07-20T14:33:07;22.15;49.79
61351;DHT22;47119;49.130;9.218;2023-07-20T14:35:34;22.08;52.13
61351;DHT22;47119;49.130;9.218;2023-07-20T14:38:06;22.04;51.05
61351;DHT22;47119;49.130;9.218;2023-07-20T14:40:33;22.08;51.01
61351;DHT22;47119;49.130;9.218;2023-07-20T14:43:02;22.04;51.73
61351;DHT22;47119;49.130;9.218;2023-07-20T14:45:32;22.04;52.60
61351;DHT22;47119;49.130;9.218;2023-07-20T14:48:03;22.07;53.17
61351;DHT22;47119;49.130;9.218;2023-07-20T14:50:33;22.11;54.16
61351;DHT22;47119;49.130;9.218;2023-07-20T14:53:03;22.17;51.80
61351;DHT22;47119;49.130;9.218;2023-07-20T14:55:45;22.15;51.16
61351;DHT22;47119;49.130;9.218;2023-07-20T14:58:14;22.17;50.62
61351;DHT22;47119;49.130;9.218;2023-07-20T15:00:49;22.18;48.55
61351;DHT22;47119;49.130;9.218;2023-07-20T15:03:22;22.08;54.03
61351;DHT22;47119;49.130;9.218;2023-07-20T15:05:51;22.13;51.46
61351;DHT22;47119;49.130;9.218;2023-07-20T15:08:23;22.15;50.65
61351;DHT22;47119;49.130;9.218;2023-07-20T15:11:24;22.08;54.80
61351;DHT22;47119;49.130;9.218;2023-07-20T15:15:40;22.11;51.38
61351;DHT22;47119;49.130;9.218;2023-07-20T15:18:54;22.14;51.00
61351;DHT22;47119;49.130;9.218;2023-07-20T15:21:49;22.18;50.90
61351;DHT22;47119;49.130;9.218;2023-07-20T15:24:35;22.13;51.19
61351;DHT22;47119;49.130;9.218;2023-07-20T15:27:03;22.10;51.74
61351;DHT22;47119;49.130;9.218;2023-07-20T15:29:31;22.05;50.85
61351;DHT22;47119;49.130;9.218;2023-07-20T15:31:59;22.08;52.65
61351;DHT22;47119;49.130;9.218;2023-07-20T15:34:27;22.10;51.39
61351;DHT22;47119;49.130;9.218;2023-07-20T15:37:05;22.10;52.47
61351;DHT22;47119;49.130;9.218;2023-07-20T15:39:40;22.18;48.84
61351;DHT22;47119;49.130;9.218;2023-07-20T15:42:12;22.10;51.84
61351;DHT22;47119;49.130;9.218;2023-07-20T15:44:53;22.05;53.49
61351;DHT22;47119;49.130;9.218;2023-07-20T15:47:21;22.10;54.64
61351;DHT22;47119;49.130;9.218;2023-07-20T15:49:51;22.05;55.67
61351;DHT22;47119;49.130;9.218;2023-07-20T15:52:20;22.08;54.88
61351;DHT22;47119;49.130;9.218;2023-07-20T15:55:06;22.17;50.62
61351;DHT22;47119;49.130;9.218;2023-07-20T15:57:36;22.14;53.50
61351;DHT22;47119;49.130;9.218;2023-07-20T16:00:08;22.17;50.13
61351;DHT22;47119;49.130;9.218;2023-07-20T16:02:39;22.25;50.04
61351;DHT22;47119;49.130;9.218;2023-07-20T16:05:07;22.24;48.77
61351;DHT22;47119;49.130;9.218;2023-07-20T16:07:35;22.20;49.02
61351;DHT22;47119;49.130;9.218;2023-07-20T16:10:02;22.13;49.76
61351;DHT22;47119;49.130;9.218;2023-07-20T16:12:33;22.15;50.21
61351;DHT22;47119;49.130;9.218;2023-07-20T16:15:04;22.17;51.03
61351;DHT22;47119;49.130;9.218;2023-07-20T16:17:33;22.13;52.34
61351;DHT22;47119;49.130;9.218;2023-07-20T16:20:02;22.11;50.62
61351;DHT22;47119;49.130;9.218;2023-07-20T16:22:32;22.11;51.19
61351;DHT22;47119;49.130;9.218;2023-07-20T16:24:59;22.08;53.38
61351;DHT22;47119;49.130;9.218;2023-07-20T16:27:29;22.10;52.64
61351;DHT22;47119;49.130;9.218;2023-07-20T16:29:56;22.11;53.99
61351;DHT22;47119;49.130;9.218;2023-07-20T16:32:22;22.11;52.02
61351;DHT22;47119;49.130;9.218;2023-07-20T16:34:52;22.11;53.12
61351;DHT22;47119;49.130;9.218;2023-07-20T16:37:24;22.15;51.45
61351;DHT22;47119;49.130;9.218;2023-07-20T16:39:53;22.10;54.73
61351;DHT22;47119;49.130;9.218;2023-07-20T16:42:20;22.17;51.76
61351;DHT22;47119;49.130;9.218;2023-07-20T16:44:51;22.13;51.09
61351;DHT22;47119;49.130;9.218;2023-07-20T16:47:18;22.18;51.65
61351;DHT22;47119;49.130;9.218;2023-07-20T16:49:47;22.14;49.84
61351;DHT22;47119;49.130;9.218;2023-07-20T16:52:20;22.15;52.75
61351;DHT22;47119;49.130;9.218;2023-07-20T16:54:49;22.18;49.84
61351;DHT22;47119;49.130;9.218;2023-07-20T16:57:21;22.11;52.08
61351;DHT22;47119;49.130;9.218;2023-07-20T16:59:48;22.10;51.68
61351;DHT22;47119;49.130;9.218;2023-07-20T17:02:25;22.11;50.22
61351;DHT22;47119;49.130;9.218;2023-07-20T17:04:59;22.13;50.73
61351;DHT22;47119;49.130;9.218;2023-07-20T17:07:28;22.08;53.37
61351;DHT22;47119;49.130;9.218;2023-07-20T17:09:55;22.07;51.11
61351;DHT22;47119;49.130;9.218;2023-07-20T17:12:21;22.08;51.54
61351;DHT22;47119;49.130;9.218;2023-07-20T17:14:54;22.10;51.28
61351;DHT22;47119;49.130;9.218;2023-07-20T17:17:24;22.07;51.95
61351;DHT22;47119;49.130;9.218;2023-07-20T17:19:55;22.13;50.48
61351;DHT22;47119;49.130;9.218;2023-07-20T17:22:25;22.10;51.81
61351;DHT22;47119;49.130;9.218;2023-07-20T17:24:54;22.07;53.21
61351;DHT22;47119;49.130;9.218;2023-07-20T17:27:32;22.08;51.76
61351;DHT22;47119;49.130;9.218;2023-07-20T17:30:00;22.10;51.56
61351;DHT22;47119;49.130;9.218;2023-07-20T17:32:35;22.07;52.35
61351;DHT22;47119;49.130;9.218;2023-07-20T17:35:03;22.10;51.49
61351;DHT22;47119;49.130;9.218;2023-07-20T17:37:37;22.10;52.22
61351;DHT22;47119;49.130;9.218;2023-07-20T17:40:10;22.07;53.76
61351;DHT22;47119;49.130;9.218;2023-07-20T17:42:38;22.13;52.05
61351;DHT22;47119;49.130;9.218;2023-07-20T17:45:20;22.13;50.72
61351;DHT22;47119;49.130;9.218;2023-07-20T17:47:53;22.08;52.56
61351;DHT22;47119;49.130;9.218;2023-07-20T17:50:20;22.05;53.74
61351;DHT22;47119;49.130;9.218;2023-07-20T17:52:54;22.07;50.95
61351;DHT22;47119;49.130;9.218;2023-07-20T17:55:27;22.10;51.23
61351;DHT22;47119;49.130;9.218;2023-07-20T17:57:54;22.04;52.18
61351;DHT22;47119;49.130;9.218;2023-07-20T18:00:22;22.07;51.07
61351;DHT22;47119;49.130;9.218;2023-07-20T18:02:52;22.03;52.35
61351;DHT22;47119;49.130;9.218;2023-07-20T18:05:19;22.05;52.50
61351;DHT22;47119;49.130;9.218;2023-07-20T18:07:46;22.07;51.52
61351;DHT22;47119;49.130;9.218;2023-07-20T18:10:13;22.04;51.78
61351;DHT22;47119;49.130;9.218;2023-07-20T18:12:42;22.05;52.96
61351;DHT22;47119;49.130;9.218;2023-07-20T18:15:11;22.03;51.53
61351;DHT22;47119;49.130;9.218;2023-07-20T18:17:39;22.03;54.37
61351;DHT22;47119;49.130;9.218;2023-07-20T18:20:07;22.01;53.78
61351;DHT22;47119;49.130;9.218;2023-07-20T18:22:35;22.03;54.89
61351;DHT22;47119;49.130;9.218;2023-07-20T18:25:07;22.03;52.71
61351;DHT22;47119;49.130;9.218;2023-07-20T18:27:40;22.04;53.19
61351;DHT22;47119;49.130;9.218;2023-07-20T18:30:17;22.04;53.22
61351;DHT22;47119;49.130;9.218;2023-07-20T18:32:46;22.05;53.32
61351;DHT22;47119;49.130;9.218;2023-07-20T18:35:17;22.04;52.34
61351;DHT22;47119;49.130;9.218;2023-07-20T18:37:44;22.05;52.37
61351;DHT22;47119;49.130;9.218;2023-07-20T18:40:15;22.07;52.67
61351;DHT22;47119;49.130;9.218;2023-07-20T18:42:45;22.05;54.22
61351;DHT22;47119;49.130;9.218;2023-07-20T18:45:12;22.04;54.78
61351;DHT22;47119;49.130;9.218;2023-07-20T18:47:58;22.03;54.24
61351;DHT22;47119;49.130;9.218;2023-07-20T18:50:28;22.07;52.08
61351;DHT22;47119;49.130;9.218;2023-07-20T18:53:02;22.08;52.63
61351;DHT22;47119;49.130;9.218;2023-07-20T18:55:34;22.04;54.93
61351;DHT22;47119;49.130;9.218;2023-07-20T18:58:06;22.04;55.59
61351;DHT22;47119;49.130;9.218;2023-07-20T19:00:36;22.01;55.20
61351;DHT22;47119;49.130;9.218;2023-07-20T19:03:07;22.03;54.30
61351;DHT22;47119;49.130;9.218;2023-07-20T19:05:37;22.03;54.63
61351;DHT22;47119;49.130;9.218;2023-07-20T19:08:07;22.03;55.79
61351;DHT22;47119;49.130;9.218;2023-07-20T19:10:36;22.01;55.19
61351;DHT22;47119;49.130;9.218;2023-07-20T19:13:06;22.00;56.09
61351;DHT22;47119;49.130;9.218;2023-07-20T19:16:10;22.00;54.27
61351;DHT22;47119;49.130;9.218;2023-07-20T19:18:44;22.03;55.45
61351;DHT22;47119;49.130;9.218;2023-07-20T19:21:14;22.00;56.78
61351;DHT22;47119;49.130;9.218;2023-07-20T19:23:43;22.01;56.15
61351;DHT22;47119;49.130;9.218;2023-07-20T19:26:11;22.01;56.87
61351;DHT22;47119;49.130;9.218;2023-07-20T19:28:40;22.00;57.05
61351;DHT22;47119;49.130;9.218;2023-07-20T19:31:07;22.01;57.16
61351;DHT22;47119;49.130;9.218;2023-07-20T19:33:37;21.98;57.17
61351;DHT22;47119;49.130;9.218;2023-07-20T19:36:09;21.98;57.05
61351;DHT22;47119;49.130;9.218;2023-07-20T19:38:41;22.01;57.25
61351;DHT22;47119;49.130;9.218;2023-07-20T19:41:08;21.98;57.28
61351;DHT22;47119;49.130;9.218;2023-07-20T19:43:37;21.97;57.71
61351;DHT22;47119;49.130;9.218;2023-07-20T19:46:07;21.97;57.21
61351;DHT22;47119;49.130;9.218;2023-07-20T19:48:34;21.96;57.50
61351;DHT22;47119;49.130;9.218;2023-07-20T19:51:02;21.94;57.47
61351;DHT22;47119;49.130;9.218;2023-07-20T19:53:32;21.97;57.36
61351;DHT22;47119;49.130;9.218;2023-07-20T19:56:01;21.96;57.39
61351;DHT22;47119;49.130;9.218;2023-07-20T19:58:29;21.94;57.48
61351;DHT22;47119;49.130;9.218;2023-07-20T20:00:59;21.93;57.49
61351;DHT22;47119;49.130;9.218;2023-07-20T20:03:27;21.93;57.42
61351;DHT22;47119;49.130;9.218;2023-07-20T20:05:54;21.93;57.52
61351;DHT22;47119;49.130;9.218;2023-07-20T20:08:22;21.93;57.57
61351;DHT22;47119;49.130;9.218;2023-07-20T20:10:52;21.94;57.53
61351;DHT22;47119;49.130;9.218;2023-07-20T20:13:19;21.93;57.62
61351;DHT22;47119;49.130;9.218;2023-07-20T20:15:47;21.94;57.63
61351;DHT22;47119;49.130;9.218;2023-07-20T20:18:16;21.93;57.72
61351;DHT22;47119;49.130;9.218;2023-07-20T20:20:44;21.92;57.69
61351;DHT22;47119;49.130;9.218;2023-07-20T20:23:16;21.92;57.63
61351;DHT22;47119;49.130;9.218;2023-07-20T20:25:47;21.92;57.73
61351;DHT22;47119;49.130;9.218;2023-07-20T20:28:19;21.90;57.82
61351;DHT22;47119;49.130;9.218;2023-07-20T20:30:51;21.90;57.55
61351;DHT22;47119;49.130;9.218;2023-07-20T20:33:19;21.90;57.74
61351;DHT22;47119;49.130;9.218;2023-07-20T20:35:47;21.89;57.41
61351;DHT22;47119;49.130;9.218;2023-07-20T20:38:17;21.92;57.37
61351;DHT22;47119;49.130;9.218;2023-07-20T20:40:45;21.89;57.07
61351;DHT22;47119;49.130;9.218;2023-07-20T20:43:12;21.89;57.80
61351;DHT22;47119;49.130;9.218;2023-07-20T20:45:41;21.89;57.77
61351;DHT22;47119;49.130;9.218;2023-07-20T20:48:15;21.87;57.89
61351;DHT22;47119;49.130;9.218;2023-07-20T20:50:42;21.87;58.02
61351;DHT22;47119;49.130;9.218;2023-07-20T20:53:20;21.84;57.69
61351;DHT22;47119;49.130;9.218;2023-07-20T20:55:50;21.86;57.76
61351;DHT22;47119;49.130;9.218;2023-07-20T20:58:17;21.87;57.29
61351;DHT22;47119;49.130;9.218;2023-07-20T21:00:46;21.86;57.83
61351;DHT22;47119;49.130;9.218;2023-07-20T21:03:13;21.84;57.17
61351;DHT22;47119;49.130;9.218;2023-07-20T21:05:40;21.84;57.42
61351;DHT22;47119;49.130;9.218;2023-07-20T21:08:07;21.84;57.61
61351;DHT22;47119;49.130;9.218;2023-07-20T21:10:35;21.84;56.70
61351;DHT22;47119;49.130;9.218;2023-07-20T21:13:05;21.86;57.42
61351;DHT22;47119;49.130;9.218;2023-07-20T21:15:34;21.84;57.62
61351;DHT22;47119;49.130;9.218;2023-07-20T21:18:05;21.83;56.89
61351;DHT22;47119;49.130;9.218;2023-07-20T21:20:34;21.83;55.31